sensor_id;sensor_type;location;lat;lon;timestamp;temperature;humidity
1716;DHT22;855;48.824;9.220;2024-01-30T00:00:24;4.10;91.40
1716;DHT22;855;48.824;9.220;2024-01-30T00:02:51;4.00;91.40
1716;DHT22;855;48.824;9.220;2024-01-30T00:05:18;4.10;91.40
1716;DHT22;855;48.824;9.220;2024-01-30T00:07:45;4.10;91.30
1716;DHT22;855;48.824;9.220;2024-01-30T00:10:13;4.10;91.20
1716;DHT22;855;48.824;9.220;2024-01-30T00:12:40;4.10;91.30
1716;DHT22;855;48.824;9.220;2024-01-30T00:15:07;4.20;91.30
1716;DHT22;855;48.824;9.220;2024-01-30T00:17:35;4.20;91.30
1716;DHT22;855;48.824;9.220;2024-01-30T00:20:03;4.10;91.40
1716;DHT22;855;48.824;9.220;2024-01-30T00:22:31;4.20;91.40
1716;DHT22;855;48.824;9.220;2024-01-30T00:24:57;4.20;91.50
1716;DHT22;855;48.824;9.220;2024-01-30T00:27:26;4.20;91.50
1716;DHT22;855;48.824;9.220;2024-01-30T00:29:53;4.10;91.40
1716;DHT22;855;48.824;9.220;2024-01-30T00:32:19;4.10;91.30
1716;DHT22;855;48.824;9.220;2024-01-30T00:34:48;4.10;91.20
1716;DHT22;855;48.824;9.220;2024-01-30T00:37:15;4.10;91.30
1716;DHT22;855;48.824;9.220;2024-01-30T00:39:42;4.10;91.20
1716;DHT22;855;48.824;9.220;2024-01-30T00:42:09;3.90;91.60
1716;DHT22;855;48.824;9.220;2024-01-30T00:44:37;3.90;92.10
1716;DHT22;855;48.824;9.220;2024-01-30T00:47:04;3.90;92.30
1716;DHT22;855;48.824;9.220;2024-01-30T00:49:31;4.00;92.30
1716;DHT22;855;48.824;9.220;2024-01-30T00:51:58;3.80;92.00
1716;DHT22;855;48.824;9.220;2024-01-30T00:54:25;3.80;92.50
1716;DHT22;855;48.824;9.220;2024-01-30T00:56:52;3.80;92.60
1716;DHT22;855;48.824;9.220;2024-01-30T00:59:19;3.60;92.60
1716;DHT22;855;48.824;9.220;2024-01-30T01:01:47;3.40;92.90
1716;DHT22;855;48.824;9.220;2024-01-30T01:04:14;3.60;93.30
1716;DHT22;855;48.824;9.220;2024-01-30T01:06:40;3.60;93.30
1716;DHT22;855;48.824;9.220;2024-01-30T01:09:10;3.50;93.30
1716;DHT22;855;48.824;9.220;2024-01-30T01:11:37;3.60;93.40
1716;DHT22;855;48.824;9.220;2024-01-30T01:14:04;3.60;93.30
1716;DHT22;855;48.824;9.220;2024-01-30T01:16:31;3.60;93.30
1716;DHT22;855;48.824;9.220;2024-01-30T01:18:59;3.60;93.30
1716;DHT22;855;48.824;9.220;2024-01-30T01:21:26;3.60;93.30
1716;DHT22;855;48.824;9.220;2024-01-30T01:23:53;3.60;93.30
1716;DHT22;855;48.824;9.220;2024-01-30T01:26:19;3.60;93.40
1716;DHT22;855;48.824;9.220;2024-01-30T01:28:46;3.60;93.40
1716;DHT22;855;48.824;9.220;2024-01-30T01:31:13;3.70;93.30
1716;DHT22;855;48.824;9.220;2024-01-30T01:33:40;3.60;93.10
1716;DHT22;855;48.824;9.220;2024-01-30T01:36:09;3.70;93.10
1716;DHT22;855;48.824;9.220;2024-01-30T01:38:35;3.70;93.00
1716;DHT22;855;48.824;9.220;2024-01-30T01:41:02;3.80;92.90
1716;DHT22;855;48.824;9.220;2024-01-30T01:43:29;3.90;92.70
1716;DHT22;855;48.824;9.220;2024-01-30T01:45:56;3.90;92.60
1716;DHT22;855;48.824;9.220;2024-01-30T01:48:22;3.90;92.60
1716;DHT22;855;48.824;9.220;2024-01-30T01:50:49;3.90;92.50
1716;DHT22;855;48.824;9.220;2024-01-30T01:53:17;3.90;92.40
1716;DHT22;855;48.824;9.220;2024-01-30T01:55:45;4.00;92.40
1716;DHT22;855;48.824;9.220;2024-01-30T01:58:13;4.00;92.30
1716;DHT22;855;48.824;9.220;2024-01-30T02:00:40;4.00;92.30
1716;DHT22;855;48.824;9.220;2024-01-30T02:03:08;4.00;92.30
1716;DHT22;855;48.824;9.220;2024-01-30T02:05:37;4.00;92.20
1716;DHT22;855;48.824;9.220;2024-01-30T02:08:05;3.90;92.20
1716;DHT22;855;48.824;9.220;2024-01-30T02:10:34;3.90;92.20
1716;DHT22;855;48.824;9.220;2024-01-30T02:13:01;3.90;92.20
1716;DHT22;855;48.824;9.220;2024-01-30T02:15:28;3.90;92.20
1716;DHT22;855;48.824;9.220;2024-01-30T02:17:55;3.90;92.00
1716;DHT22;855;48.824;9.220;2024-01-30T02:20:24;3.90;92.00
1716;DHT22;855;48.824;9.220;2024-01-30T02:22:54;3.90;91.80
1716;DHT22;855;48.824;9.220;2024-01-30T02:25:30;4.00;91.90
1716;DHT22;855;48.824;9.220;2024-01-30T02:27:57;4.00;91.80
1716;DHT22;855;48.824;9.220;2024-01-30T02:30:24;3.90;91.70
1716;DHT22;855;48.824;9.220;2024-01-30T02:32:51;3.80;91.90
1716;DHT22;855;48.824;9.220;2024-01-30T02:35:18;3.70;92.20
1716;DHT22;855;48.824;9.220;2024-01-30T02:37:45;3.70;92.40
1716;DHT22;855;48.824;9.220;2024-01-30T02:40:13;3.70;92.10
1716;DHT22;855;48.824;9.220;2024-01-30T02:42:40;3.60;92.10
1716;DHT22;855;48.824;9.220;2024-01-30T02:45:08;3.50;92.80
1716;DHT22;855;48.824;9.220;2024-01-30T02:47:35;3.50;93.10
1716;DHT22;855;48.824;9.220;2024-01-30T02:50:02;3.60;93.10
1716;DHT22;855;48.824;9.220;2024-01-30T02:52:29;3.60;93.00
1716;DHT22;855;48.824;9.220;2024-01-30T02:54:55;3.70;92.90
1716;DHT22;855;48.824;9.220;2024-01-30T02:57:24;3.70;92.80
1716;DHT22;855;48.824;9.220;2024-01-30T02:59:51;3.70;92.60
1716;DHT22;855;48.824;9.220;2024-01-30T03:02:18;3.70;92.50
1716;DHT22;855;48.824;9.220;2024-01-30T03:04:45;3.70;92.40
1716;DHT22;855;48.824;9.220;2024-01-30T03:07:12;3.50;92.20
1716;DHT22;855;48.824;9.220;2024-01-30T03:09:39;3.50;92.70
1716;DHT22;855;48.824;9.220;2024-01-30T03:12:07;3.30;93.10
1716;DHT22;855;48.824;9.220;2024-01-30T03:14:36;3.20;93.70
1716;DHT22;855;48.824;9.220;2024-01-30T03:17:03;3.10;94.40
1716;DHT22;855;48.824;9.220;2024-01-30T03:19:30;3.20;94.70
1716;DHT22;855;48.824;9.220;2024-01-30T03:21:56;3.30;94.60
1716;DHT22;855;48.824;9.220;2024-01-30T03:24:23;3.40;94.30
1716;DHT22;855;48.824;9.220;2024-01-30T03:26:50;3.40;93.90
1716;DHT22;855;48.824;9.220;2024-01-30T03:29:17;3.50;93.90
1716;DHT22;855;48.824;9.220;2024-01-30T03:31:45;3.60;93.40
1716;DHT22;855;48.824;9.220;2024-01-30T03:34:12;3.60;93.10
1716;DHT22;855;48.824;9.220;2024-01-30T03:36:38;3.70;92.80
1716;DHT22;855;48.824;9.220;2024-01-30T03:39:06;3.70;92.50
1716;DHT22;855;48.824;9.220;2024-01-30T03:41:32;3.70;92.50
1716;DHT22;855;48.824;9.220;2024-01-30T03:43:59;3.70;92.20
1716;DHT22;855;48.824;9.220;2024-01-30T03:46:26;3.80;92.00
1716;DHT22;855;48.824;9.220;2024-01-30T03:48:54;3.80;91.80
1716;DHT22;855;48.824;9.220;2024-01-30T03:51:21;3.80;91.60
1716;DHT22;855;48.824;9.220;2024-01-30T03:53:48;3.80;91.50
1716;DHT22;855;48.824;9.220;2024-01-30T03:56:14;3.80;91.40
1716;DHT22;855;48.824;9.220;2024-01-30T03:58:41;3.70;91.40
1716;DHT22;855;48.824;9.220;2024-01-30T04:01:13;3.70;91.50
1716;DHT22;855;48.824;9.220;2024-01-30T04:03:40;3.60;91.30
1716;DHT22;855;48.824;9.220;2024-01-30T04:06:08;3.60;91.30
1716;DHT22;855;48.824;9.220;2024-01-30T04:08:35;3.60;91.40
1716;DHT22;855;48.824;9.220;2024-01-30T04:11:04;3.60;91.40
1716;DHT22;855;48.824;9.220;2024-01-30T04:13:32;3.60;91.30
1716;DHT22;855;48.824;9.220;2024-01-30T04:15:59;3.50;91.60
1716;DHT22;855;48.824;9.220;2024-01-30T04:18:26;3.50;91.70
1716;DHT22;855;48.824;9.220;2024-01-30T04:20:54;3.60;91.60
1716;DHT22;855;48.824;9.220;2024-01-30T04:23:22;3.50;91.60
1716;DHT22;855;48.824;9.220;2024-01-30T04:25:49;3.50;91.70
1716;DHT22;855;48.824;9.220;2024-01-30T04:28:15;3.50;91.80
1716;DHT22;855;48.824;9.220;2024-01-30T04:30:42;3.50;91.70
1716;DHT22;855;48.824;9.220;2024-01-30T04:33:10;3.50;91.80
1716;DHT22;855;48.824;9.220;2024-01-30T04:35:37;3.50;91.80
1716;DHT22;855;48.824;9.220;2024-01-30T04:38:04;3.50;91.80
1716;DHT22;855;48.824;9.220;2024-01-30T04:40:32;3.50;91.80
1716;DHT22;855;48.824;9.220;2024-01-30T04:42:59;3.50;91.80
1716;DHT22;855;48.824;9.220;2024-01-30T04:45:25;3.50;91.80
1716;DHT22;855;48.824;9.220;2024-01-30T04:47:52;3.50;91.80
1716;DHT22;855;48.824;9.220;2024-01-30T04:50:19;3.40;91.80
1716;DHT22;855;48.824;9.220;2024-01-30T04:52:46;3.40;91.70
1716;DHT22;855;48.824;9.220;2024-01-30T04:55:13;3.30;91.80
1716;DHT22;855;48.824;9.220;2024-01-30T04:57:41;3.10;92.10
1716;DHT22;855;48.824;9.220;2024-01-30T05:00:09;3.00;93.00
1716;DHT22;855;48.824;9.220;2024-01-30T05:02:36;3.00;93.80
1716;DHT22;855;48.824;9.220;2024-01-30T05:05:03;3.00;94.00
1716;DHT22;855;48.824;9.220;2024-01-30T05:07:30;3.00;94.00
1716;DHT22;855;48.824;9.220;2024-01-30T05:09:57;3.20;93.90
1716;DHT22;855;48.824;9.220;2024-01-30T05:12:23;3.20;93.70
1716;DHT22;855;48.824;9.220;2024-01-30T05:14:51;3.30;93.60
1716;DHT22;855;48.824;9.220;2024-01-30T05:17:18;3.30;93.20
1716;DHT22;855;48.824;9.220;2024-01-30T05:19:45;3.10;92.90
1716;DHT22;855;48.824;9.220;2024-01-30T05:22:12;3.00;93.30
1716;DHT22;855;48.824;9.220;2024-01-30T05:24:41;3.00;93.60
1716;DHT22;855;48.824;9.220;2024-01-30T05:27:08;3.00;93.90
1716;DHT22;855;48.824;9.220;2024-01-30T05:29:34;2.90;94.10
1716;DHT22;855;48.824;9.220;2024-01-30T05:32:03;2.90;94.60
1716;DHT22;855;48.824;9.220;2024-01-30T05:34:30;2.80;95.00
1716;DHT22;855;48.824;9.220;2024-01-30T05:36:57;2.80;95.20
1716;DHT22;855;48.824;9.220;2024-01-30T05:39:24;2.90;95.40
1716;DHT22;855;48.824;9.220;2024-01-30T05:41:51;2.90;95.40
1716;DHT22;855;48.824;9.220;2024-01-30T05:44:18;3.00;95.20
1716;DHT22;855;48.824;9.220;2024-01-30T05:46:44;3.10;95.00
1716;DHT22;855;48.824;9.220;2024-01-30T05:49:12;3.20;94.80
1716;DHT22;855;48.824;9.220;2024-01-30T05:51:39;3.20;94.20
1716;DHT22;855;48.824;9.220;2024-01-30T05:54:06;3.20;94.40
1716;DHT22;855;48.824;9.220;2024-01-30T05:56:33;3.20;94.50
1716;DHT22;855;48.824;9.220;2024-01-30T05:59:00;3.30;94.60
1716;DHT22;855;48.824;9.220;2024-01-30T06:01:27;3.30;94.40
1716;DHT22;855;48.824;9.220;2024-01-30T06:03:54;3.30;94.30
1716;DHT22;855;48.824;9.220;2024-01-30T06:06:23;3.40;94.10
1716;DHT22;855;48.824;9.220;2024-01-30T06:08:50;3.40;94.00
1716;DHT22;855;48.824;9.220;2024-01-30T06:11:16;3.40;94.10
1716;DHT22;855;48.824;9.220;2024-01-30T06:13:43;3.40;94.00
1716;DHT22;855;48.824;9.220;2024-01-30T06:16:10;3.50;94.00
1716;DHT22;855;48.824;9.220;2024-01-30T06:18:38;3.50;93.70
1716;DHT22;855;48.824;9.220;2024-01-30T06:21:05;3.50;93.50
1716;DHT22;855;48.824;9.220;2024-01-30T06:23:33;3.50;93.30
1716;DHT22;855;48.824;9.220;2024-01-30T06:26:00;3.50;93.10
1716;DHT22;855;48.824;9.220;2024-01-30T06:28:27;3.40;93.20
1716;DHT22;855;48.824;9.220;2024-01-30T06:30:54;3.50;93.30
1716;DHT22;855;48.824;9.220;2024-01-30T06:33:20;3.50;93.30
1716;DHT22;855;48.824;9.220;2024-01-30T06:35:48;3.40;93.30
1716;DHT22;855;48.824;9.220;2024-01-30T06:38:14;3.40;93.30
1716;DHT22;855;48.824;9.220;2024-01-30T06:40:43;3.50;93.20
1716;DHT22;855;48.824;9.220;2024-01-30T06:43:10;3.50;93.10
1716;DHT22;855;48.824;9.220;2024-01-30T06:45:36;3.40;93.10
1716;DHT22;855;48.824;9.220;2024-01-30T06:48:04;3.40;93.20
1716;DHT22;855;48.824;9.220;2024-01-30T06:50:31;3.30;93.40
1716;DHT22;855;48.824;9.220;2024-01-30T06:52:58;3.30;93.50
1716;DHT22;855;48.824;9.220;2024-01-30T06:55:24;3.30;93.70
1716;DHT22;855;48.824;9.220;2024-01-30T06:57:53;3.40;93.50
1716;DHT22;855;48.824;9.220;2024-01-30T07:00:20;3.30;93.30
1716;DHT22;855;48.824;9.220;2024-01-30T07:02:47;3.30;93.40
1716;DHT22;855;48.824;9.220;2024-01-30T07:05:14;3.30;93.60
1716;DHT22;855;48.824;9.220;2024-01-30T07:07:40;3.30;93.70
1716;DHT22;855;48.824;9.220;2024-01-30T07:10:08;3.40;93.40
1716;DHT22;855;48.824;9.220;2024-01-30T07:12:35;3.30;93.50
1716;DHT22;855;48.824;9.220;2024-01-30T07:15:04;3.40;93.40
1716;DHT22;855;48.824;9.220;2024-01-30T07:17:33;3.50;93.30
1716;DHT22;855;48.824;9.220;2024-01-30T07:20:00;3.50;93.20
1716;DHT22;855;48.824;9.220;2024-01-30T07:22:29;3.60;93.20
1716;DHT22;855;48.824;9.220;2024-01-30T07:24:55;3.60;93.10
1716;DHT22;855;48.824;9.220;2024-01-30T07:27:22;3.60;93.00
1716;DHT22;855;48.824;9.220;2024-01-30T07:29:49;3.70;92.80
1716;DHT22;855;48.824;9.220;2024-01-30T07:32:17;3.80;92.60
1716;DHT22;855;48.824;9.220;2024-01-30T07:34:45;3.90;92.30
1716;DHT22;855;48.824;9.220;2024-01-30T07:37:12;4.00;92.20
1716;DHT22;855;48.824;9.220;2024-01-30T07:39:41;4.00;91.80
1716;DHT22;855;48.824;9.220;2024-01-30T07:42:08;4.10;91.50
1716;DHT22;855;48.824;9.220;2024-01-30T07:44:35;4.00;91.30
1716;DHT22;855;48.824;9.220;2024-01-30T07:47:01;3.90;91.40
1716;DHT22;855;48.824;9.220;2024-01-30T07:49:31;3.80;91.60
1716;DHT22;855;48.824;9.220;2024-01-30T07:52:01;3.80;91.70
1716;DHT22;855;48.824;9.220;2024-01-30T07:54:30;3.90;91.80
1716;DHT22;855;48.824;9.220;2024-01-30T07:56:58;4.00;91.70
1716;DHT22;855;48.824;9.220;2024-01-30T07:59:25;4.00;91.40
1716;DHT22;855;48.824;9.220;2024-01-30T08:01:52;3.90;91.40
1716;DHT22;855;48.824;9.220;2024-01-30T08:04:19;4.00;91.10
1716;DHT22;855;48.824;9.220;2024-01-30T08:06:47;4.00;91.20
1716;DHT22;855;48.824;9.220;2024-01-30T08:09:14;4.10;91.10
1716;DHT22;855;48.824;9.220;2024-01-30T08:11:41;4.20;90.90
1716;DHT22;855;48.824;9.220;2024-01-30T08:14:07;4.20;90.80
1716;DHT22;855;48.824;9.220;2024-01-30T08:16:34;4.30;90.60
1716;DHT22;855;48.824;9.220;2024-01-30T08:19:01;4.30;90.50
1716;DHT22;855;48.824;9.220;2024-01-30T08:21:28;4.30;90.20
1716;DHT22;855;48.824;9.220;2024-01-30T08:23:56;4.30;90.20
1716;DHT22;855;48.824;9.220;2024-01-30T08:26:23;4.30;90.20
1716;DHT22;855;48.824;9.220;2024-01-30T08:28:50;4.40;90.30
1716;DHT22;855;48.824;9.220;2024-01-30T08:31:19;4.60;90.10
1716;DHT22;855;48.824;9.220;2024-01-30T08:33:45;4.60;89.50
1716;DHT22;855;48.824;9.220;2024-01-30T08:36:13;4.70;89.30
1716;DHT22;855;48.824;9.220;2024-01-30T08:38:39;4.80;88.90
1716;DHT22;855;48.824;9.220;2024-01-30T08:41:08;4.80;88.50
1716;DHT22;855;48.824;9.220;2024-01-30T08:43:35;4.80;88.50
1716;DHT22;855;48.824;9.220;2024-01-30T08:46:03;5.00;88.30
1716;DHT22;855;48.824;9.220;2024-01-30T08:48:30;5.10;87.90
1716;DHT22;855;48.824;9.220;2024-01-30T08:50:56;5.20;87.40
1716;DHT22;855;48.824;9.220;2024-01-30T08:53:23;5.30;87.10
1716;DHT22;855;48.824;9.220;2024-01-30T08:55:50;5.30;86.60
1716;DHT22;855;48.824;9.220;2024-01-30T08:58:18;5.50;86.40
1716;DHT22;855;48.824;9.220;2024-01-30T09:00:45;5.50;85.70
1716;DHT22;855;48.824;9.220;2024-01-30T09:03:12;5.70;85.60
1716;DHT22;855;48.824;9.220;2024-01-30T09:05:39;5.80;84.80
1716;DHT22;855;48.824;9.220;2024-01-30T09:08:06;5.90;84.50
1716;DHT22;855;48.824;9.220;2024-01-30T09:10:33;6.00;84.20
1716;DHT22;855;48.824;9.220;2024-01-30T09:12:59;6.10;84.00
1716;DHT22;855;48.824;9.220;2024-01-30T09:15:28;6.10;83.60
1716;DHT22;855;48.824;9.220;2024-01-30T09:17:54;6.20;83.20
1716;DHT22;855;48.824;9.220;2024-01-30T09:20:21;6.30;83.40
1716;DHT22;855;48.824;9.220;2024-01-30T09:22:48;6.50;83.20
1716;DHT22;855;48.824;9.220;2024-01-30T09:25:15;6.50;82.40
1716;DHT22;855;48.824;9.220;2024-01-30T09:27:44;6.60;81.90
1716;DHT22;855;48.824;9.220;2024-01-30T09:30:11;6.60;81.60
1716;DHT22;855;48.824;9.220;2024-01-30T09:32:41;6.70;81.60
1716;DHT22;855;48.824;9.220;2024-01-30T09:35:09;6.80;81.30
1716;DHT22;855;48.824;9.220;2024-01-30T09:37:37;6.90;81.20
1716;DHT22;855;48.824;9.220;2024-01-30T09:40:04;7.00;80.70
1716;DHT22;855;48.824;9.220;2024-01-30T09:42:34;7.20;80.40
1716;DHT22;855;48.824;9.220;2024-01-30T09:45:01;7.30;79.20
1716;DHT22;855;48.824;9.220;2024-01-30T09:47:31;7.30;79.10
1716;DHT22;855;48.824;9.220;2024-01-30T09:50:01;7.40;79.10
1716;DHT22;855;48.824;9.220;2024-01-30T09:52:29;7.50;78.70
1716;DHT22;855;48.824;9.220;2024-01-30T09:54:56;7.50;78.40
1716;DHT22;855;48.824;9.220;2024-01-30T09:57:26;7.60;78.60
1716;DHT22;855;48.824;9.220;2024-01-30T09:59:52;7.70;78.30
1716;DHT22;855;48.824;9.220;2024-01-30T10:02:20;7.80;77.50
1716;DHT22;855;48.824;9.220;2024-01-30T10:04:48;7.90;77.50
1716;DHT22;855;48.824;9.220;2024-01-30T10:07:16;8.10;77.10
1716;DHT22;855;48.824;9.220;2024-01-30T10:09:43;8.20;76.70
1716;DHT22;855;48.824;9.220;2024-01-30T10:12:10;8.40;76.40
1716;DHT22;855;48.824;9.220;2024-01-30T10:14:38;8.70;76.00
1716;DHT22;855;48.824;9.220;2024-01-30T10:17:08;8.90;75.40
1716;DHT22;855;48.824;9.220;2024-01-30T10:19:35;9.10;74.30
1716;DHT22;855;48.824;9.220;2024-01-30T10:22:02;9.30;73.40
1716;DHT22;855;48.824;9.220;2024-01-30T10:24:31;9.50;72.70
1716;DHT22;855;48.824;9.220;2024-01-30T10:26:58;9.60;71.40
1716;DHT22;855;48.824;9.220;2024-01-30T10:29:25;9.60;71.20
1716;DHT22;855;48.824;9.220;2024-01-30T10:31:58;9.70;71.40
1716;DHT22;855;48.824;9.220;2024-01-30T10:34:26;9.80;71.60
1716;DHT22;855;48.824;9.220;2024-01-30T10:36:59;9.80;70.90
1716;DHT22;855;48.824;9.220;2024-01-30T10:39:30;9.80;70.50
1716;DHT22;855;48.824;9.220;2024-01-30T10:42:04;9.90;70.90
1716;DHT22;855;48.824;9.220;2024-01-30T10:44:37;10.10;70.50
1716;DHT22;855;48.824;9.220;2024-01-30T10:47:08;10.10;70.10
1716;DHT22;855;48.824;9.220;2024-01-30T10:49:39;10.20;70.60
1716;DHT22;855;48.824;9.220;2024-01-30T10:52:06;10.20;69.70
1716;DHT22;855;48.824;9.220;2024-01-30T10:54:36;10.30;70.10
1716;DHT22;855;48.824;9.220;2024-01-30T10:57:04;10.50;69.40
1716;DHT22;855;48.824;9.220;2024-01-30T10:59:32;10.70;68.80
1716;DHT22;855;48.824;9.220;2024-01-30T11:01:59;10.80;67.90
1716;DHT22;855;48.824;9.220;2024-01-30T11:04:26;10.80;67.50
1716;DHT22;855;48.824;9.220;2024-01-30T11:06:54;11.00;67.70
1716;DHT22;855;48.824;9.220;2024-01-30T11:09:21;11.00;66.70
1716;DHT22;855;48.824;9.220;2024-01-30T11:11:56;11.10;66.90
1716;DHT22;855;48.824;9.220;2024-01-30T11:14:25;11.30;66.50
1716;DHT22;855;48.824;9.220;2024-01-30T11:16:52;11.40;66.00
1716;DHT22;855;48.824;9.220;2024-01-30T11:19:23;11.40;65.50
1716;DHT22;855;48.824;9.220;2024-01-30T11:21:51;11.50;64.80
1716;DHT22;855;48.824;9.220;2024-01-30T11:24:20;11.50;64.90
1716;DHT22;855;48.824;9.220;2024-01-30T11:26:48;11.50;64.20
1716;DHT22;855;48.824;9.220;2024-01-30T11:29:17;11.40;64.40
1716;DHT22;855;48.824;9.220;2024-01-30T11:31:52;11.50;64.80
1716;DHT22;855;48.824;9.220;2024-01-30T11:34:20;11.60;65.20
1716;DHT22;855;48.824;9.220;2024-01-30T11:36:51;11.70;64.90
1716;DHT22;855;48.824;9.220;2024-01-30T11:39:20;11.80;63.60
1716;DHT22;855;48.824;9.220;2024-01-30T11:41:50;11.80;63.50
1716;DHT22;855;48.824;9.220;2024-01-30T11:44:19;11.80;63.20
1716;DHT22;855;48.824;9.220;2024-01-30T11:46:47;11.80;63.90
1716;DHT22;855;48.824;9.220;2024-01-30T11:49:14;11.80;63.00
1716;DHT22;855;48.824;9.220;2024-01-30T11:51:42;11.80;63.80
1716;DHT22;855;48.824;9.220;2024-01-30T11:54:09;11.80;63.60
1716;DHT22;855;48.824;9.220;2024-01-30T11:56:37;11.80;63.60
1716;DHT22;855;48.824;9.220;2024-01-30T11:59:04;11.90;63.80
1716;DHT22;855;48.824;9.220;2024-01-30T12:01:32;12.00;63.10
1716;DHT22;855;48.824;9.220;2024-01-30T12:04:00;12.10;62.80
1716;DHT22;855;48.824;9.220;2024-01-30T12:06:26;12.20;63.00
1716;DHT22;855;48.824;9.220;2024-01-30T12:09:00;12.40;62.60
1716;DHT22;855;48.824;9.220;2024-01-30T12:11:30;12.50;62.20
1716;DHT22;855;48.824;9.220;2024-01-30T12:13:56;12.60;62.00
1716;DHT22;855;48.824;9.220;2024-01-30T12:16:23;12.70;61.90
1716;DHT22;855;48.824;9.220;2024-01-30T12:18:59;12.80;61.60
1716;DHT22;855;48.824;9.220;2024-01-30T12:21:26;12.80;61.20
1716;DHT22;855;48.824;9.220;2024-01-30T12:23:53;12.60;61.20
1716;DHT22;855;48.824;9.220;2024-01-30T12:26:20;12.70;62.30
1716;DHT22;855;48.824;9.220;2024-01-30T12:28:53;12.60;63.40
1716;DHT22;855;48.824;9.220;2024-01-30T12:31:25;12.70;63.80
1716;DHT22;855;48.824;9.220;2024-01-30T12:33:54;12.80;63.80
1716;DHT22;855;48.824;9.220;2024-01-30T12:36:21;12.80;63.60
1716;DHT22;855;48.824;9.220;2024-01-30T12:38:48;12.60;64.20
1716;DHT22;855;48.824;9.220;2024-01-30T12:41:15;12.60;64.40
1716;DHT22;855;48.824;9.220;2024-01-30T12:43:42;12.70;63.90
1716;DHT22;855;48.824;9.220;2024-01-30T12:46:09;12.80;64.30
1716;DHT22;855;48.824;9.220;2024-01-30T12:48:36;12.80;63.90
1716;DHT22;855;48.824;9.220;2024-01-30T12:51:04;12.80;64.20
1716;DHT22;855;48.824;9.220;2024-01-30T12:53:31;12.80;64.00
1716;DHT22;855;48.824;9.220;2024-01-30T12:55:58;12.70;63.50
1716;DHT22;855;48.824;9.220;2024-01-30T12:58:25;12.60;65.20
1716;DHT22;855;48.824;9.220;2024-01-30T13:00:52;12.60;66.30
1716;DHT22;855;48.824;9.220;2024-01-30T13:03:19;12.60;66.40
1716;DHT22;855;48.824;9.220;2024-01-30T13:05:46;12.70;65.50
1716;DHT22;855;48.824;9.220;2024-01-30T13:08:14;12.80;63.50
1716;DHT22;855;48.824;9.220;2024-01-30T13:10:41;12.80;63.60
1716;DHT22;855;48.824;9.220;2024-01-30T13:13:08;12.80;63.20
1716;DHT22;855;48.824;9.220;2024-01-30T13:15:35;13.00;62.70
1716;DHT22;855;48.824;9.220;2024-01-30T13:18:02;13.00;62.80
1716;DHT22;855;48.824;9.220;2024-01-30T13:20:30;13.10;63.10
1716;DHT22;855;48.824;9.220;2024-01-30T13:22:57;13.10;62.80
1716;DHT22;855;48.824;9.220;2024-01-30T13:25:25;13.10;63.40
1716;DHT22;855;48.824;9.220;2024-01-30T13:27:52;13.30;63.90
1716;DHT22;855;48.824;9.220;2024-01-30T13:30:19;13.40;63.10
1716;DHT22;855;48.824;9.220;2024-01-30T13:32:46;13.50;62.60
1716;DHT22;855;48.824;9.220;2024-01-30T13:35:13;13.70;62.30
1716;DHT22;855;48.824;9.220;2024-01-30T13:37:40;13.90;61.90
1716;DHT22;855;48.824;9.220;2024-01-30T13:40:08;14.00;61.20
1716;DHT22;855;48.824;9.220;2024-01-30T13:42:36;14.10;61.20
1716;DHT22;855;48.824;9.220;2024-01-30T13:45:04;14.10;61.80
1716;DHT22;855;48.824;9.220;2024-01-30T13:47:31;14.10;61.60
1716;DHT22;855;48.824;9.220;2024-01-30T13:49:58;14.00;61.50
1716;DHT22;855;48.824;9.220;2024-01-30T13:52:24;14.10;61.40
1716;DHT22;855;48.824;9.220;2024-01-30T13:54:52;14.20;61.20
1716;DHT22;855;48.824;9.220;2024-01-30T13:57:19;14.20;61.00
1716;DHT22;855;48.824;9.220;2024-01-30T13:59:47;14.20;61.20
1716;DHT22;855;48.824;9.220;2024-01-30T14:02:14;14.20;61.20
1716;DHT22;855;48.824;9.220;2024-01-30T14:04:41;14.20;61.00
1716;DHT22;855;48.824;9.220;2024-01-30T14:07:07;14.10;61.10
1716;DHT22;855;48.824;9.220;2024-01-30T14:09:35;13.90;62.30
1716;DHT22;855;48.824;9.220;2024-01-30T14:12:02;13.80;62.80
1716;DHT22;855;48.824;9.220;2024-01-30T14:14:28;13.70;63.00
1716;DHT22;855;48.824;9.220;2024-01-30T14:16:57;13.60;63.40
1716;DHT22;855;48.824;9.220;2024-01-30T14:19:24;13.50;64.00
1716;DHT22;855;48.824;9.220;2024-01-30T14:21:50;13.50;64.30
1716;DHT22;855;48.824;9.220;2024-01-30T14:24:17;13.70;64.30
1716;DHT22;855;48.824;9.220;2024-01-30T14:26:44;13.60;64.30
1716;DHT22;855;48.824;9.220;2024-01-30T14:29:12;13.50;65.10
1716;DHT22;855;48.824;9.220;2024-01-30T14:31:39;13.50;65.30
1716;DHT22;855;48.824;9.220;2024-01-30T14:34:07;13.60;65.10
1716;DHT22;855;48.824;9.220;2024-01-30T14:36:36;13.70;65.20
1716;DHT22;855;48.824;9.220;2024-01-30T14:39:03;13.70;65.10
1716;DHT22;855;48.824;9.220;2024-01-30T14:41:32;13.60;65.20
1716;DHT22;855;48.824;9.220;2024-01-30T14:43:59;13.50;65.60
1716;DHT22;855;48.824;9.220;2024-01-30T14:46:25;13.40;66.30
1716;DHT22;855;48.824;9.220;2024-01-30T14:48:53;13.50;66.40
1716;DHT22;855;48.824;9.220;2024-01-30T14:51:21;13.40;66.40
1716;DHT22;855;48.824;9.220;2024-01-30T14:53:48;13.20;66.80
1716;DHT22;855;48.824;9.220;2024-01-30T14:56:14;13.30;67.10
1716;DHT22;855;48.824;9.220;2024-01-30T14:58:41;13.40;66.80
1716;DHT22;855;48.824;9.220;2024-01-30T15:01:09;13.30;66.50
1716;DHT22;855;48.824;9.220;2024-01-30T15:03:35;13.30;66.50
1716;DHT22;855;48.824;9.220;2024-01-30T15:06:03;13.30;66.40
1716;DHT22;855;48.824;9.220;2024-01-30T15:08:32;13.30;66.70
1716;DHT22;855;48.824;9.220;2024-01-30T15:10:59;13.20;66.70
1716;DHT22;855;48.824;9.220;2024-01-30T15:13:26;13.20;66.50
1716;DHT22;855;48.824;9.220;2024-01-30T15:15:53;13.10;66.80
1716;DHT22;855;48.824;9.220;2024-01-30T15:18:19;13.00;66.30
1716;DHT22;855;48.824;9.220;2024-01-30T15:20:46;13.00;66.70
1716;DHT22;855;48.824;9.220;2024-01-30T15:23:13;13.10;66.70
1716;DHT22;855;48.824;9.220;2024-01-30T15:25:42;13.20;66.50
1716;DHT22;855;48.824;9.220;2024-01-30T15:28:09;13.30;66.10
1716;DHT22;855;48.824;9.220;2024-01-30T15:30:36;13.30;66.00
1716;DHT22;855;48.824;9.220;2024-01-30T15:33:03;13.40;66.00
1716;DHT22;855;48.824;9.220;2024-01-30T15:35:30;13.40;66.00
1716;DHT22;855;48.824;9.220;2024-01-30T15:37:57;13.40;66.40
1716;DHT22;855;48.824;9.220;2024-01-30T15:40:24;13.40;66.50
1716;DHT22;855;48.824;9.220;2024-01-30T15:42:52;13.40;66.80
1716;DHT22;855;48.824;9.220;2024-01-30T15:45:19;13.40;66.90
1716;DHT22;855;48.824;9.220;2024-01-30T15:47:46;13.40;67.10
1716;DHT22;855;48.824;9.220;2024-01-30T15:50:13;13.30;67.50
1716;DHT22;855;48.824;9.220;2024-01-30T15:52:40;13.30;67.70
1716;DHT22;855;48.824;9.220;2024-01-30T15:55:07;13.10;68.10
1716;DHT22;855;48.824;9.220;2024-01-30T15:57:34;12.80;70.00
1716;DHT22;855;48.824;9.220;2024-01-30T16:00:02;12.60;70.80
1716;DHT22;855;48.824;9.220;2024-01-30T16:02:29;12.60;71.20
1716;DHT22;855;48.824;9.220;2024-01-30T16:04:56;12.60;71.20
1716;DHT22;855;48.824;9.220;2024-01-30T16:07:24;12.50;71.30
1716;DHT22;855;48.824;9.220;2024-01-30T16:09:50;12.50;71.40
1716;DHT22;855;48.824;9.220;2024-01-30T16:12:17;12.50;71.30
1716;DHT22;855;48.824;9.220;2024-01-30T16:14:44;12.50;71.40
1716;DHT22;855;48.824;9.220;2024-01-30T16:17:13;12.50;71.40
1716;DHT22;855;48.824;9.220;2024-01-30T16:19:40;12.50;71.40
1716;DHT22;855;48.824;9.220;2024-01-30T16:22:07;12.50;71.40
1716;DHT22;855;48.824;9.220;2024-01-30T16:24:33;12.50;71.40
1716;DHT22;855;48.824;9.220;2024-01-30T16:27:00;12.40;71.60
1716;DHT22;855;48.824;9.220;2024-01-30T16:29:27;12.40;71.70